Wednesday, June 20, 2018, 6:39 PM EDT
Back to Local

KBFD, Bradford Regional Airport

Location: Cyclone, PA, United States Lat: 41.8
Local Time: 6:39 PM EDT (22:39 GMT) Lon: -78.633
Time Zone: US/Eastern Elev: 2142 ft

Show me the last for .
Show Decoded

2018-06-20 17:53 METAR KBFD 202153Z AUTO 00000KT 10SM OVC028 17/14 A2987 RMK AO2 SLP107 T01720144
                 =
2018-06-20 16:53 METAR KBFD 202053Z AUTO 04006KT 10SM OVC028 17/15 A2988 RMK AO2 RAB23E35 SLP111
                 P0000 60000 T01670150 56004 =
2018-06-20 15:53 METAR KBFD 201953Z AUTO 03005KT 10SM FEW011 BKN023 OVC037 18/14 A2989 RMK AO2
                 RAE48 SLP111 P0000 T01780144 =
2018-06-20 15:44 METAR KBFD 201944Z AUTO 01007KT 10SM -RA SCT011 BKN018 OVC038 18/15 A2989 RMK
                 AO2 P0000 T01780150 =
2018-06-20 14:53 METAR KBFD 201853Z AUTO 12003KT 10SM -RA SCT046 BKN060 OVC070 19/16 A2988 RMK
                 AO2 SLP106 P0000 T01940156 =
2018-06-20 13:53 METAR KBFD 201753Z AUTO 00000KT 10SM -RA FEW035 BKN070 OVC090 19/15 A2990 RMK
                 AO2 RAB00 SLP112 P0001 60001 T01940150 10222 20161 58008 =
2018-06-20 12:53 METAR KBFD 201653Z AUTO 01004KT 10SM OVC050 22/14 A2991 RMK AO2 SLP115 T02170139
                 =
2018-06-20 11:53 METAR KBFD 201553Z AUTO 00000KT 10SM OVC055 22/13 A2992 RMK AO2 SLP117 T02170128
                 =
2018-06-20 10:53 METAR KBFD 201453Z AUTO 06003KT 10SM OVC060 21/13 A2992 RMK AO2 SLP119 T02110133
                 56013 =
2018-06-20 09:53 METAR KBFD 201353Z AUTO 13007KT 10SM SCT070 BKN080 19/11 A2993 RMK AO2 SLP122
                 T01940111 =
2018-06-20 08:53 METAR KBFD 201253Z AUTO 12005KT 10SM BKN075 OVC090 17/12 A2995 RMK AO2 SLP132
                 T01720117 =
2018-06-20 07:53 METAR KBFD 201153Z AUTO VRB03KT 10SM OVC075 16/12 A2996 RMK AO2 SLP133 60000
                 70001 T01610122 10161 20144 53004 =
2018-06-20 06:53 METAR KBFD 201053Z AUTO 00000KT 10SM OVC075 16/13 A2996 RMK AO2 SLP132 T01560128
                 $ =
2018-06-20 05:53 METAR KBFD 200953Z AUTO 12003KT 10SM OVC080 15/13 A2995 RMK AO2 RAE04 SLP128
                 P0000 T01500128 $ =
2018-06-20 04:53 METAR KBFD 200853Z AUTO 00000KT 10SM -RA BKN090 OVC110 15/13 A2995 RMK AO2 RAB52
                 SLP127 P0000 60000 T01500128 58006 $ =
2018-06-20 03:53 METAR KBFD 200753Z AUTO 18003KT 10SM SCT090 OVC110 16/13 A2997 RMK AO2 SLP133
                 T01560133 $ =
2018-06-20 02:53 METAR KBFD 200653Z AUTO 00000KT 10SM OVC090 16/13 A2995 RMK AO2 SLP128 T01560128
                 $ =
2018-06-20 01:53 METAR KBFD 200553Z AUTO 00000KT 10SM BKN110 17/13 A2997 RMK AO2 SLP135 T01670128
                 10211 20156 58006 $ =
2018-06-20 00:53 METAR KBFD 200453Z AUTO 00000KT 10SM CLR 16/12 A2997 RMK AO2 SLP136 T01610122
                 402440161 =
2018-06-19 23:53 METAR KBFD 200353Z AUTO 00000KT 10SM CLR 17/13 A2999 RMK AO2 SLP141 T01720128 =
2018-06-19 22:53 METAR KBFD 200253Z AUTO 00000KT 10SM BKN120 18/13 A2999 RMK AO2 SLP142 T01780128
                 53005 =
2018-06-19 21:53 METAR KBFD 200153Z AUTO 01004KT 10SM FEW120 18/12 A3000 RMK AO2 SLP146 T01780117
                 =
2018-06-19 20:53 METAR KBFD 200053Z AUTO 07003KT 10SM CLR 18/12 A2996 RMK AO2 SLP136 T01780117 =
2018-06-19 19:53 METAR KBFD 192353Z AUTO 03003KT 10SM CLR 21/11 A2997 RMK AO2 SLP135 T02110106
                 10244 20211 58003 =
2018-06-19 18:53 METAR KBFD 192253Z AUTO 35006KT 10SM CLR 23/09 A2998 RMK AO2 SLP135 T02330094 =

Support USWX by starting your Amazon purchase here.